sensor_id;sensor_type;location;lat;lon;timestamp;P1;durP1;ratioP1;P2;durP2;ratioP2
64595;SDS011;51003;51.628;6.670;2023-08-08T00:02:17;7.30;;;3.40;;
64595;SDS011;51003;51.628;6.670;2023-08-08T00:04:43;4.60;;;3.40;;
64595;SDS011;51003;51.628;6.670;2023-08-08T00:07:09;5.97;;;3.40;;
64595;SDS011;51003;51.628;6.670;2023-08-08T00:09:35;3.50;;;3.20;;
64595;SDS011;51003;51.628;6.670;2023-08-08T00:12:00;4.83;;;2.97;;
64595;SDS011;51003;51.628;6.670;2023-08-08T00:14:25;3.50;;;2.97;;
64595;SDS011;51003;51.628;6.670;2023-08-08T00:16:51;3.50;;;3.00;;
64595;SDS011;51003;51.628;6.670;2023-08-08T00:19:17;5.77;;;3.23;;
64595;SDS011;51003;51.628;6.670;2023-08-08T00:21:42;3.10;;;2.80;;
64595;SDS011;51003;51.628;6.670;2023-08-08T00:24:08;3.57;;;3.00;;
64595;SDS011;51003;51.628;6.670;2023-08-08T00:26:33;3.97;;;2.87;;
64595;SDS011;51003;51.628;6.670;2023-08-08T00:28:59;2.70;;;2.50;;
64595;SDS011;51003;51.628;6.670;2023-08-08T00:31:25;2.90;;;2.63;;
64595;SDS011;51003;51.628;6.670;2023-08-08T00:33:50;3.87;;;2.90;;
64595;SDS011;51003;51.628;6.670;2023-08-08T00:36:16;3.10;;;2.80;;
64595;SDS011;51003;51.628;6.670;2023-08-08T00:38:42;2.70;;;2.50;;
64595;SDS011;51003;51.628;6.670;2023-08-08T00:41:07;4.23;;;2.67;;
64595;SDS011;51003;51.628;6.670;2023-08-08T00:43:33;2.80;;;2.37;;
64595;SDS011;51003;51.628;6.670;2023-08-08T00:45:59;2.67;;;2.40;;
64595;SDS011;51003;51.628;6.670;2023-08-08T00:48:24;5.07;;;2.67;;
64595;SDS011;51003;51.628;6.670;2023-08-08T00:50:50;6.47;;;2.53;;
64595;SDS011;51003;51.628;6.670;2023-08-08T00:53:16;5.63;;;2.60;;
64595;SDS011;51003;51.628;6.670;2023-08-08T00:55:43;3.53;;;3.10;;
64595;SDS011;51003;51.628;6.670;2023-08-08T00:58:08;2.87;;;2.63;;
64595;SDS011;51003;51.628;6.670;2023-08-08T01:00:34;3.43;;;2.97;;
64595;SDS011;51003;51.628;6.670;2023-08-08T01:03:00;4.93;;;2.83;;
64595;SDS011;51003;51.628;6.670;2023-08-08T01:05:25;3.00;;;2.80;;
64595;SDS011;51003;51.628;6.670;2023-08-08T01:08:05;4.60;;;2.80;;
64595;SDS011;51003;51.628;6.670;2023-08-08T01:10:36;3.53;;;2.57;;
64595;SDS011;51003;51.628;6.670;2023-08-08T01:13:25;4.80;;;3.00;;
64595;SDS011;51003;51.628;6.670;2023-08-08T01:15:49;3.03;;;2.73;;
64595;SDS011;51003;51.628;6.670;2023-08-08T01:18:16;3.97;;;2.80;;
64595;SDS011;51003;51.628;6.670;2023-08-08T01:20:43;3.37;;;3.07;;
64595;SDS011;51003;51.628;6.670;2023-08-08T01:23:14;4.67;;;3.03;;
64595;SDS011;51003;51.628;6.670;2023-08-08T01:25:41;3.70;;;3.00;;
64595;SDS011;51003;51.628;6.670;2023-08-08T01:28:07;3.27;;;2.97;;
64595;SDS011;51003;51.628;6.670;2023-08-08T01:30:33;3.93;;;3.30;;
64595;SDS011;51003;51.628;6.670;2023-08-08T01:32:59;3.33;;;3.03;;
64595;SDS011;51003;51.628;6.670;2023-08-08T01:35:26;4.53;;;2.80;;
64595;SDS011;51003;51.628;6.670;2023-08-08T01:37:55;11.93;;;3.07;;
64595;SDS011;51003;51.628;6.670;2023-08-08T01:40:26;3.00;;;2.70;;
64595;SDS011;51003;51.628;6.670;2023-08-08T01:42:52;3.40;;;2.97;;
64595;SDS011;51003;51.628;6.670;2023-08-08T01:45:18;3.93;;;2.57;;
64595;SDS011;51003;51.628;6.670;2023-08-08T01:47:51;3.37;;;3.07;;
64595;SDS011;51003;51.628;6.670;2023-08-08T01:50:16;3.47;;;2.63;;
64595;SDS011;51003;51.628;6.670;2023-08-08T01:52:42;4.63;;;2.50;;
64595;SDS011;51003;51.628;6.670;2023-08-08T01:55:08;3.83;;;2.83;;
64595;SDS011;51003;51.628;6.670;2023-08-08T01:57:34;6.20;;;2.63;;
64595;SDS011;51003;51.628;6.670;2023-08-08T01:59:59;5.27;;;3.00;;
64595;SDS011;51003;51.628;6.670;2023-08-08T02:02:25;3.20;;;2.97;;
64595;SDS011;51003;51.628;6.670;2023-08-08T02:04:50;4.17;;;3.10;;
64595;SDS011;51003;51.628;6.670;2023-08-08T02:07:16;5.60;;;2.53;;
64595;SDS011;51003;51.628;6.670;2023-08-08T02:09:42;4.00;;;2.67;;
64595;SDS011;51003;51.628;6.670;2023-08-08T02:12:10;3.57;;;2.60;;
64595;SDS011;51003;51.628;6.670;2023-08-08T02:14:35;3.87;;;2.80;;
64595;SDS011;51003;51.628;6.670;2023-08-08T02:17:01;3.40;;;2.57;;
64595;SDS011;51003;51.628;6.670;2023-08-08T02:19:27;3.30;;;3.00;;
64595;SDS011;51003;51.628;6.670;2023-08-08T02:21:54;4.10;;;2.63;;
64595;SDS011;51003;51.628;6.670;2023-08-08T02:24:19;5.20;;;3.13;;
64595;SDS011;51003;51.628;6.670;2023-08-08T02:26:45;3.17;;;2.87;;
64595;SDS011;51003;51.628;6.670;2023-08-08T02:29:11;6.60;;;2.87;;
64595;SDS011;51003;51.628;6.670;2023-08-08T02:31:37;5.03;;;3.10;;
64595;SDS011;51003;51.628;6.670;2023-08-08T02:34:02;7.97;;;3.20;;
64595;SDS011;51003;51.628;6.670;2023-08-08T02:36:28;3.23;;;3.00;;
64595;SDS011;51003;51.628;6.670;2023-08-08T02:38:54;2.90;;;2.70;;
64595;SDS011;51003;51.628;6.670;2023-08-08T02:41:20;4.93;;;3.10;;
64595;SDS011;51003;51.628;6.670;2023-08-08T02:43:46;3.20;;;2.90;;
64595;SDS011;51003;51.628;6.670;2023-08-08T02:46:12;6.27;;;3.37;;
64595;SDS011;51003;51.628;6.670;2023-08-08T02:48:37;3.80;;;3.37;;
64595;SDS011;51003;51.628;6.670;2023-08-08T02:51:03;4.97;;;3.20;;
64595;SDS011;51003;51.628;6.670;2023-08-08T02:53:29;4.60;;;3.20;;
64595;SDS011;51003;51.628;6.670;2023-08-08T02:55:54;6.23;;;2.90;;
64595;SDS011;51003;51.628;6.670;2023-08-08T02:58:20;3.37;;;3.07;;
64595;SDS011;51003;51.628;6.670;2023-08-08T03:00:46;8.53;;;3.50;;
64595;SDS011;51003;51.628;6.670;2023-08-08T03:03:12;4.30;;;3.17;;
64595;SDS011;51003;51.628;6.670;2023-08-08T03:05:37;4.03;;;3.30;;
64595;SDS011;51003;51.628;6.670;2023-08-08T03:08:03;6.23;;;2.83;;
64595;SDS011;51003;51.628;6.670;2023-08-08T03:10:28;7.97;;;3.60;;
64595;SDS011;51003;51.628;6.670;2023-08-08T03:12:54;4.47;;;3.00;;
64595;SDS011;51003;51.628;6.670;2023-08-08T03:15:20;6.40;;;4.10;;
64595;SDS011;51003;51.628;6.670;2023-08-08T03:17:45;4.20;;;3.10;;
64595;SDS011;51003;51.628;6.670;2023-08-08T03:20:11;4.43;;;3.30;;
64595;SDS011;51003;51.628;6.670;2023-08-08T03:22:37;6.57;;;3.57;;
64595;SDS011;51003;51.628;6.670;2023-08-08T03:25:03;8.97;;;3.73;;
64595;SDS011;51003;51.628;6.670;2023-08-08T03:27:29;3.80;;;3.40;;
64595;SDS011;51003;51.628;6.670;2023-08-08T03:29:55;7.60;;;3.57;;
64595;SDS011;51003;51.628;6.670;2023-08-08T03:32:21;4.43;;;3.20;;
64595;SDS011;51003;51.628;6.670;2023-08-08T03:34:47;8.60;;;4.07;;
64595;SDS011;51003;51.628;6.670;2023-08-08T03:37:12;5.40;;;3.73;;
64595;SDS011;51003;51.628;6.670;2023-08-08T03:39:38;5.60;;;4.10;;
64595;SDS011;51003;51.628;6.670;2023-08-08T03:42:04;7.33;;;3.77;;
64595;SDS011;51003;51.628;6.670;2023-08-08T03:44:30;6.70;;;4.33;;
64595;SDS011;51003;51.628;6.670;2023-08-08T03:46:55;10.10;;;4.37;;
64595;SDS011;51003;51.628;6.670;2023-08-08T03:49:21;7.83;;;4.33;;
64595;SDS011;51003;51.628;6.670;2023-08-08T03:51:47;13.43;;;4.43;;
64595;SDS011;51003;51.628;6.670;2023-08-08T03:54:13;5.33;;;3.80;;
64595;SDS011;51003;51.628;6.670;2023-08-08T03:56:40;8.23;;;4.20;;
64595;SDS011;51003;51.628;6.670;2023-08-08T03:59:05;5.63;;;3.77;;
64595;SDS011;51003;51.628;6.670;2023-08-08T04:01:31;10.30;;;4.00;;
64595;SDS011;51003;51.628;6.670;2023-08-08T04:03:57;7.83;;;4.10;;
64595;SDS011;51003;51.628;6.670;2023-08-08T04:06:23;9.30;;;3.97;;
64595;SDS011;51003;51.628;6.670;2023-08-08T04:08:49;6.00;;;4.40;;
64595;SDS011;51003;51.628;6.670;2023-08-08T04:11:14;7.10;;;4.43;;
64595;SDS011;51003;51.628;6.670;2023-08-08T04:13:40;8.77;;;4.43;;
64595;SDS011;51003;51.628;6.670;2023-08-08T04:16:05;9.60;;;3.90;;
64595;SDS011;51003;51.628;6.670;2023-08-08T04:18:31;7.37;;;4.17;;
64595;SDS011;51003;51.628;6.670;2023-08-08T04:20:56;9.20;;;3.77;;
64595;SDS011;51003;51.628;6.670;2023-08-08T04:23:22;8.50;;;4.00;;
64595;SDS011;51003;51.628;6.670;2023-08-08T04:25:50;6.40;;;4.13;;
64595;SDS011;51003;51.628;6.670;2023-08-08T04:28:16;7.30;;;3.70;;
64595;SDS011;51003;51.628;6.670;2023-08-08T04:30:42;10.00;;;4.50;;
64595;SDS011;51003;51.628;6.670;2023-08-08T04:33:08;7.93;;;4.10;;
64595;SDS011;51003;51.628;6.670;2023-08-08T04:35:33;8.03;;;4.40;;
64595;SDS011;51003;51.628;6.670;2023-08-08T04:37:59;8.63;;;4.30;;
64595;SDS011;51003;51.628;6.670;2023-08-08T04:40:24;5.60;;;4.13;;
64595;SDS011;51003;51.628;6.670;2023-08-08T04:42:51;9.10;;;3.67;;
64595;SDS011;51003;51.628;6.670;2023-08-08T04:45:16;8.17;;;4.50;;
64595;SDS011;51003;51.628;6.670;2023-08-08T04:47:41;6.17;;;3.90;;
64595;SDS011;51003;51.628;6.670;2023-08-08T04:50:07;11.43;;;4.40;;
64595;SDS011;51003;51.628;6.670;2023-08-08T04:52:33;6.73;;;4.07;;
64595;SDS011;51003;51.628;6.670;2023-08-08T04:54:59;11.50;;;4.53;;
64595;SDS011;51003;51.628;6.670;2023-08-08T04:57:24;10.60;;;4.47;;
64595;SDS011;51003;51.628;6.670;2023-08-08T04:59:50;10.30;;;4.57;;
64595;SDS011;51003;51.628;6.670;2023-08-08T05:02:16;10.50;;;5.10;;
64595;SDS011;51003;51.628;6.670;2023-08-08T05:04:41;11.97;;;4.87;;
64595;SDS011;51003;51.628;6.670;2023-08-08T05:07:07;8.27;;;4.37;;
64595;SDS011;51003;51.628;6.670;2023-08-08T05:09:33;8.77;;;4.60;;
64595;SDS011;51003;51.628;6.670;2023-08-08T05:11:58;7.83;;;4.70;;
64595;SDS011;51003;51.628;6.670;2023-08-08T05:14:24;17.77;;;5.60;;
64595;SDS011;51003;51.628;6.670;2023-08-08T05:16:49;11.83;;;5.03;;
64595;SDS011;51003;51.628;6.670;2023-08-08T05:19:15;11.17;;;5.37;;
64595;SDS011;51003;51.628;6.670;2023-08-08T05:21:41;10.73;;;5.50;;
64595;SDS011;51003;51.628;6.670;2023-08-08T05:24:07;11.20;;;5.43;;
64595;SDS011;51003;51.628;6.670;2023-08-08T05:26:33;14.20;;;5.50;;
64595;SDS011;51003;51.628;6.670;2023-08-08T05:29:00;10.37;;;5.90;;
64595;SDS011;51003;51.628;6.670;2023-08-08T05:31:26;10.60;;;6.23;;
64595;SDS011;51003;51.628;6.670;2023-08-08T05:33:52;15.13;;;7.27;;
64595;SDS011;51003;51.628;6.670;2023-08-08T05:36:18;12.43;;;6.87;;
64595;SDS011;51003;51.628;6.670;2023-08-08T05:38:44;10.40;;;6.63;;
64595;SDS011;51003;51.628;6.670;2023-08-08T05:41:09;10.60;;;6.77;;
64595;SDS011;51003;51.628;6.670;2023-08-08T05:43:35;13.80;;;7.20;;
64595;SDS011;51003;51.628;6.670;2023-08-08T05:46:01;12.80;;;8.17;;
64595;SDS011;51003;51.628;6.670;2023-08-08T05:48:27;10.40;;;7.33;;
64595;SDS011;51003;51.628;6.670;2023-08-08T05:50:52;12.97;;;7.90;;
64595;SDS011;51003;51.628;6.670;2023-08-08T05:53:18;12.30;;;8.27;;
64595;SDS011;51003;51.628;6.670;2023-08-08T05:55:44;16.80;;;8.83;;
64595;SDS011;51003;51.628;6.670;2023-08-08T05:58:10;14.57;;;8.90;;
64595;SDS011;51003;51.628;6.670;2023-08-08T06:00:35;13.60;;;8.93;;
64595;SDS011;51003;51.628;6.670;2023-08-08T06:03:01;16.37;;;8.27;;
64595;SDS011;51003;51.628;6.670;2023-08-08T06:05:27;17.70;;;9.00;;
64595;SDS011;51003;51.628;6.670;2023-08-08T06:07:53;16.27;;;9.53;;
64595;SDS011;51003;51.628;6.670;2023-08-08T06:10:20;16.10;;;8.80;;
64595;SDS011;51003;51.628;6.670;2023-08-08T06:12:45;15.37;;;8.80;;
64595;SDS011;51003;51.628;6.670;2023-08-08T06:15:11;16.37;;;9.20;;
64595;SDS011;51003;51.628;6.670;2023-08-08T06:17:37;19.03;;;8.90;;
64595;SDS011;51003;51.628;6.670;2023-08-08T06:20:03;19.87;;;9.90;;
64595;SDS011;51003;51.628;6.670;2023-08-08T06:22:31;14.67;;;9.77;;
64595;SDS011;51003;51.628;6.670;2023-08-08T06:24:57;18.90;;;8.47;;
64595;SDS011;51003;51.628;6.670;2023-08-08T06:27:23;14.90;;;9.30;;
64595;SDS011;51003;51.628;6.670;2023-08-08T06:29:49;14.80;;;9.00;;
64595;SDS011;51003;51.628;6.670;2023-08-08T06:32:15;14.07;;;9.03;;
64595;SDS011;51003;51.628;6.670;2023-08-08T06:34:41;25.47;;;9.23;;
64595;SDS011;51003;51.628;6.670;2023-08-08T06:37:06;18.03;;;9.10;;
64595;SDS011;51003;51.628;6.670;2023-08-08T06:39:32;19.20;;;9.60;;
64595;SDS011;51003;51.628;6.670;2023-08-08T06:41:58;20.17;;;9.53;;
64595;SDS011;51003;51.628;6.670;2023-08-08T06:44:24;19.20;;;9.67;;
64595;SDS011;51003;51.628;6.670;2023-08-08T06:46:50;15.13;;;8.97;;
64595;SDS011;51003;51.628;6.670;2023-08-08T06:49:16;18.00;;;9.37;;
64595;SDS011;51003;51.628;6.670;2023-08-08T06:51:41;19.43;;;9.40;;
64595;SDS011;51003;51.628;6.670;2023-08-08T06:54:07;11.73;;;8.47;;
64595;SDS011;51003;51.628;6.670;2023-08-08T06:56:33;14.47;;;9.63;;
64595;SDS011;51003;51.628;6.670;2023-08-08T06:58:59;20.77;;;9.00;;
64595;SDS011;51003;51.628;6.670;2023-08-08T07:01:24;20.87;;;9.77;;
64595;SDS011;51003;51.628;6.670;2023-08-08T07:03:50;13.57;;;9.03;;
64595;SDS011;51003;51.628;6.670;2023-08-08T07:06:17;12.20;;;9.13;;
64595;SDS011;51003;51.628;6.670;2023-08-08T07:08:42;16.87;;;8.67;;
64595;SDS011;51003;51.628;6.670;2023-08-08T07:11:08;17.57;;;9.50;;
64595;SDS011;51003;51.628;6.670;2023-08-08T07:13:35;17.63;;;8.23;;
64595;SDS011;51003;51.628;6.670;2023-08-08T07:16:00;17.90;;;8.57;;
64595;SDS011;51003;51.628;6.670;2023-08-08T07:18:26;19.57;;;8.30;;
64595;SDS011;51003;51.628;6.670;2023-08-08T07:20:51;9.23;;;6.80;;
64595;SDS011;51003;51.628;6.670;2023-08-08T07:23:17;12.00;;;6.53;;
64595;SDS011;51003;51.628;6.670;2023-08-08T07:25:42;11.80;;;6.03;;
64595;SDS011;51003;51.628;6.670;2023-08-08T07:28:08;8.00;;;5.97;;
64595;SDS011;51003;51.628;6.670;2023-08-08T07:30:34;7.27;;;5.83;;
64595;SDS011;51003;51.628;6.670;2023-08-08T07:33:00;10.70;;;6.20;;
64595;SDS011;51003;51.628;6.670;2023-08-08T07:35:25;12.70;;;5.60;;
64595;SDS011;51003;51.628;6.670;2023-08-08T07:37:50;6.30;;;4.50;;
64595;SDS011;51003;51.628;6.670;2023-08-08T07:40:17;6.93;;;4.67;;
64595;SDS011;51003;51.628;6.670;2023-08-08T07:42:43;7.37;;;4.60;;
64595;SDS011;51003;51.628;6.670;2023-08-08T07:45:09;6.77;;;4.47;;
64595;SDS011;51003;51.628;6.670;2023-08-08T07:47:35;8.67;;;4.30;;
64595;SDS011;51003;51.628;6.670;2023-08-08T07:50:00;6.13;;;3.80;;
64595;SDS011;51003;51.628;6.670;2023-08-08T07:52:26;6.80;;;4.37;;
64595;SDS011;51003;51.628;6.670;2023-08-08T07:54:52;10.83;;;4.27;;
64595;SDS011;51003;51.628;6.670;2023-08-08T07:57:17;8.60;;;3.67;;
64595;SDS011;51003;51.628;6.670;2023-08-08T07:59:43;6.57;;;3.80;;
64595;SDS011;51003;51.628;6.670;2023-08-08T08:02:09;4.93;;;3.10;;
64595;SDS011;51003;51.628;6.670;2023-08-08T08:04:34;7.30;;;3.50;;
64595;SDS011;51003;51.628;6.670;2023-08-08T08:07:00;5.80;;;3.20;;
64595;SDS011;51003;51.628;6.670;2023-08-08T08:09:27;4.63;;;2.97;;
64595;SDS011;51003;51.628;6.670;2023-08-08T08:11:52;6.30;;;3.30;;
64595;SDS011;51003;51.628;6.670;2023-08-08T08:14:18;5.73;;;3.23;;
64595;SDS011;51003;51.628;6.670;2023-08-08T08:16:45;5.57;;;3.33;;
64595;SDS011;51003;51.628;6.670;2023-08-08T08:19:11;8.37;;;3.27;;
64595;SDS011;51003;51.628;6.670;2023-08-08T08:21:36;5.67;;;3.40;;
64595;SDS011;51003;51.628;6.670;2023-08-08T08:24:01;3.80;;;3.10;;
64595;SDS011;51003;51.628;6.670;2023-08-08T08:26:29;4.90;;;3.23;;
64595;SDS011;51003;51.628;6.670;2023-08-08T08:28:54;3.00;;;2.80;;
64595;SDS011;51003;51.628;6.670;2023-08-08T08:31:20;4.73;;;3.10;;
64595;SDS011;51003;51.628;6.670;2023-08-08T08:33:45;8.53;;;2.90;;
64595;SDS011;51003;51.628;6.670;2023-08-08T08:36:11;6.83;;;2.40;;
64595;SDS011;51003;51.628;6.670;2023-08-08T08:38:39;3.83;;;2.80;;
64595;SDS011;51003;51.628;6.670;2023-08-08T08:41:04;4.43;;;2.27;;
64595;SDS011;51003;51.628;6.670;2023-08-08T08:43:30;4.57;;;2.60;;
64595;SDS011;51003;51.628;6.670;2023-08-08T08:45:56;3.40;;;2.30;;
64595;SDS011;51003;51.628;6.670;2023-08-08T08:48:25;6.57;;;2.20;;
64595;SDS011;51003;51.628;6.670;2023-08-08T08:50:50;2.33;;;2.00;;
64595;SDS011;51003;51.628;6.670;2023-08-08T08:53:17;7.70;;;2.63;;
64595;SDS011;51003;51.628;6.670;2023-08-08T08:55:43;3.80;;;2.50;;
64595;SDS011;51003;51.628;6.670;2023-08-08T08:58:09;4.10;;;2.20;;
64595;SDS011;51003;51.628;6.670;2023-08-08T09:00:34;3.90;;;1.90;;
64595;SDS011;51003;51.628;6.670;2023-08-08T09:03:00;4.73;;;2.40;;
64595;SDS011;51003;51.628;6.670;2023-08-08T09:05:26;3.43;;;2.50;;
64595;SDS011;51003;51.628;6.670;2023-08-08T09:07:52;4.83;;;2.70;;
64595;SDS011;51003;51.628;6.670;2023-08-08T09:10:17;4.23;;;2.60;;
64595;SDS011;51003;51.628;6.670;2023-08-08T09:12:44;5.10;;;2.70;;
64595;SDS011;51003;51.628;6.670;2023-08-08T09:15:10;4.07;;;2.90;;
64595;SDS011;51003;51.628;6.670;2023-08-08T09:17:40;6.00;;;2.60;;
64595;SDS011;51003;51.628;6.670;2023-08-08T09:20:06;3.20;;;2.17;;
64595;SDS011;51003;51.628;6.670;2023-08-08T09:22:33;5.33;;;2.10;;
64595;SDS011;51003;51.628;6.670;2023-08-08T09:24:58;5.83;;;2.80;;
64595;SDS011;51003;51.628;6.670;2023-08-08T09:27:24;6.50;;;2.30;;
64595;SDS011;51003;51.628;6.670;2023-08-08T09:29:50;2.23;;;2.13;;
64595;SDS011;51003;51.628;6.670;2023-08-08T09:32:17;5.33;;;2.50;;
64595;SDS011;51003;51.628;6.670;2023-08-08T09:34:43;2.63;;;2.37;;
64595;SDS011;51003;51.628;6.670;2023-08-08T09:37:09;4.00;;;2.80;;
64595;SDS011;51003;51.628;6.670;2023-08-08T09:39:35;2.90;;;2.40;;
64595;SDS011;51003;51.628;6.670;2023-08-08T09:42:02;4.30;;;2.40;;
64595;SDS011;51003;51.628;6.670;2023-08-08T09:44:29;3.47;;;2.37;;
64595;SDS011;51003;51.628;6.670;2023-08-08T09:46:56;4.53;;;2.70;;
64595;SDS011;51003;51.628;6.670;2023-08-08T09:49:22;2.93;;;2.20;;
64595;SDS011;51003;51.628;6.670;2023-08-08T09:51:48;3.50;;;1.90;;
64595;SDS011;51003;51.628;6.670;2023-08-08T09:54:14;2.50;;;2.30;;
64595;SDS011;51003;51.628;6.670;2023-08-08T09:56:40;4.90;;;2.10;;
64595;SDS011;51003;51.628;6.670;2023-08-08T09:59:05;4.60;;;2.47;;
64595;SDS011;51003;51.628;6.670;2023-08-08T10:01:32;3.03;;;2.60;;
64595;SDS011;51003;51.628;6.670;2023-08-08T10:03:58;4.10;;;2.57;;
64595;SDS011;51003;51.628;6.670;2023-08-08T10:06:25;2.57;;;2.07;;
64595;SDS011;51003;51.628;6.670;2023-08-08T10:08:52;6.90;;;2.13;;
64595;SDS011;51003;51.628;6.670;2023-08-08T10:11:18;2.80;;;1.97;;
64595;SDS011;51003;51.628;6.670;2023-08-08T10:13:49;3.77;;;2.47;;
64595;SDS011;51003;51.628;6.670;2023-08-08T10:16:16;2.70;;;2.00;;
64595;SDS011;51003;51.628;6.670;2023-08-08T10:18:42;4.73;;;2.20;;
64595;SDS011;51003;51.628;6.670;2023-08-08T10:21:08;3.60;;;2.03;;
64595;SDS011;51003;51.628;6.670;2023-08-08T10:23:38;2.10;;;1.90;;
64595;SDS011;51003;51.628;6.670;2023-08-08T10:26:04;3.70;;;2.07;;
64595;SDS011;51003;51.628;6.670;2023-08-08T10:28:32;2.80;;;1.97;;
64595;SDS011;51003;51.628;6.670;2023-08-08T10:31:00;6.70;;;2.23;;
64595;SDS011;51003;51.628;6.670;2023-08-08T10:33:27;2.20;;;2.00;;
64595;SDS011;51003;51.628;6.670;2023-08-08T10:36:04;3.23;;;1.97;;
64595;SDS011;51003;51.628;6.670;2023-08-08T10:38:42;2.60;;;1.90;;
64595;SDS011;51003;51.628;6.670;2023-08-08T10:41:08;3.43;;;2.03;;
64595;SDS011;51003;51.628;6.670;2023-08-08T10:43:38;4.63;;;2.17;;
64595;SDS011;51003;51.628;6.670;2023-08-08T10:46:03;2.20;;;2.00;;
64595;SDS011;51003;51.628;6.670;2023-08-08T10:48:29;3.23;;;2.37;;
64595;SDS011;51003;51.628;6.670;2023-08-08T10:50:57;2.83;;;2.20;;
64595;SDS011;51003;51.628;6.670;2023-08-08T10:53:23;3.13;;;1.93;;
64595;SDS011;51003;51.628;6.670;2023-08-08T10:55:57;2.23;;;2.00;;
64595;SDS011;51003;51.628;6.670;2023-08-08T10:58:51;2.43;;;2.23;;
64595;SDS011;51003;51.628;6.670;2023-08-08T11:01:17;3.17;;;2.27;;
64595;SDS011;51003;51.628;6.670;2023-08-08T11:03:43;3.10;;;2.20;;
64595;SDS011;51003;51.628;6.670;2023-08-08T11:06:09;2.30;;;1.97;;
64595;SDS011;51003;51.628;6.670;2023-08-08T11:08:36;5.77;;;2.10;;
64595;SDS011;51003;51.628;6.670;2023-08-08T11:11:03;5.60;;;2.47;;
64595;SDS011;51003;51.628;6.670;2023-08-08T11:13:30;2.60;;;2.20;;
64595;SDS011;51003;51.628;6.670;2023-08-08T11:15:56;4.30;;;2.20;;
64595;SDS011;51003;51.628;6.670;2023-08-08T11:18:22;4.27;;;2.23;;
64595;SDS011;51003;51.628;6.670;2023-08-08T11:20:47;6.90;;;2.10;;
64595;SDS011;51003;51.628;6.670;2023-08-08T11:23:16;3.90;;;2.20;;
64595;SDS011;51003;51.628;6.670;2023-08-08T11:25:43;4.63;;;2.30;;
64595;SDS011;51003;51.628;6.670;2023-08-08T11:28:09;5.33;;;1.80;;
64595;SDS011;51003;51.628;6.670;2023-08-08T11:30:37;2.13;;;1.90;;
64595;SDS011;51003;51.628;6.670;2023-08-08T11:33:03;2.87;;;1.80;;
64595;SDS011;51003;51.628;6.670;2023-08-08T11:35:30;4.40;;;2.43;;
64595;SDS011;51003;51.628;6.670;2023-08-08T11:37:56;2.07;;;1.87;;
64595;SDS011;51003;51.628;6.670;2023-08-08T11:40:23;3.00;;;1.90;;
64595;SDS011;51003;51.628;6.670;2023-08-08T11:42:51;2.37;;;1.87;;
64595;SDS011;51003;51.628;6.670;2023-08-08T11:45:17;1.90;;;1.80;;
64595;SDS011;51003;51.628;6.670;2023-08-08T11:47:43;2.73;;;1.93;;
64595;SDS011;51003;51.628;6.670;2023-08-08T11:50:09;2.00;;;1.90;;
64595;SDS011;51003;51.628;6.670;2023-08-08T11:52:40;1.87;;;1.77;;
64595;SDS011;51003;51.628;6.670;2023-08-08T11:55:06;2.10;;;1.90;;
64595;SDS011;51003;51.628;6.670;2023-08-08T11:57:37;2.00;;;1.90;;
64595;SDS011;51003;51.628;6.670;2023-08-08T12:00:06;2.27;;;2.10;;
64595;SDS011;51003;51.628;6.670;2023-08-08T12:02:34;2.23;;;2.03;;
64595;SDS011;51003;51.628;6.670;2023-08-08T12:05:03;3.63;;;2.10;;
64595;SDS011;51003;51.628;6.670;2023-08-08T12:07:33;2.67;;;2.30;;
64595;SDS011;51003;51.628;6.670;2023-08-08T12:10:03;2.63;;;2.43;;
64595;SDS011;51003;51.628;6.670;2023-08-08T12:12:33;2.57;;;2.37;;
64595;SDS011;51003;51.628;6.670;2023-08-08T12:15:06;6.63;;;1.80;;
64595;SDS011;51003;51.628;6.670;2023-08-08T12:17:33;2.00;;;1.80;;
64595;SDS011;51003;51.628;6.670;2023-08-08T12:19:59;3.53;;;2.27;;
64595;SDS011;51003;51.628;6.670;2023-08-08T12:22:25;2.00;;;1.80;;
64595;SDS011;51003;51.628;6.670;2023-08-08T12:24:51;2.50;;;2.30;;
64595;SDS011;51003;51.628;6.670;2023-08-08T12:27:16;1.93;;;1.83;;
64595;SDS011;51003;51.628;6.670;2023-08-08T12:29:42;4.50;;;2.20;;
64595;SDS011;51003;51.628;6.670;2023-08-08T12:32:08;2.90;;;2.10;;
64595;SDS011;51003;51.628;6.670;2023-08-08T12:34:34;2.33;;;1.70;;
64595;SDS011;51003;51.628;6.670;2023-08-08T12:36:59;6.77;;;2.40;;
64595;SDS011;51003;51.628;6.670;2023-08-08T12:39:26;2.37;;;2.13;;
64595;SDS011;51003;51.628;6.670;2023-08-08T12:41:51;2.10;;;2.00;;
64595;SDS011;51003;51.628;6.670;2023-08-08T12:44:16;1.87;;;1.77;;
64595;SDS011;51003;51.628;6.670;2023-08-08T12:46:42;2.50;;;1.60;;
64595;SDS011;51003;51.628;6.670;2023-08-08T12:49:08;2.50;;;1.70;;
64595;SDS011;51003;51.628;6.670;2023-08-08T12:51:34;2.10;;;1.90;;
64595;SDS011;51003;51.628;6.670;2023-08-08T12:53:59;3.73;;;2.27;;
64595;SDS011;51003;51.628;6.670;2023-08-08T12:56:25;3.30;;;2.27;;
64595;SDS011;51003;51.628;6.670;2023-08-08T12:58:51;3.47;;;2.20;;
64595;SDS011;51003;51.628;6.670;2023-08-08T13:01:16;2.90;;;2.03;;
64595;SDS011;51003;51.628;6.670;2023-08-08T13:03:42;3.83;;;2.10;;
64595;SDS011;51003;51.628;6.670;2023-08-08T13:06:07;5.40;;;2.30;;
64595;SDS011;51003;51.628;6.670;2023-08-08T13:08:36;3.20;;;2.00;;
64595;SDS011;51003;51.628;6.670;2023-08-08T13:11:02;2.30;;;2.10;;
64595;SDS011;51003;51.628;6.670;2023-08-08T13:13:27;2.40;;;1.90;;
64595;SDS011;51003;51.628;6.670;2023-08-08T13:15:53;2.33;;;2.10;;
64595;SDS011;51003;51.628;6.670;2023-08-08T13:18:18;3.27;;;2.30;;
64595;SDS011;51003;51.628;6.670;2023-08-08T13:20:43;3.00;;;2.70;;
64595;SDS011;51003;51.628;6.670;2023-08-08T13:23:09;7.30;;;3.97;;
64595;SDS011;51003;51.628;6.670;2023-08-08T13:25:34;2.93;;;2.17;;
64595;SDS011;51003;51.628;6.670;2023-08-08T13:28:00;2.53;;;2.33;;
64595;SDS011;51003;51.628;6.670;2023-08-08T13:30:27;8.80;;;2.40;;
64595;SDS011;51003;51.628;6.670;2023-08-08T13:32:53;2.37;;;2.17;;
64595;SDS011;51003;51.628;6.670;2023-08-08T13:35:19;2.57;;;2.20;;
64595;SDS011;51003;51.628;6.670;2023-08-08T13:37:44;3.90;;;2.10;;
64595;SDS011;51003;51.628;6.670;2023-08-08T13:40:11;3.10;;;2.17;;
64595;SDS011;51003;51.628;6.670;2023-08-08T13:42:36;2.47;;;1.97;;
64595;SDS011;51003;51.628;6.670;2023-08-08T13:45:02;4.83;;;2.30;;
64595;SDS011;51003;51.628;6.670;2023-08-08T13:47:27;4.33;;;2.10;;
64595;SDS011;51003;51.628;6.670;2023-08-08T13:49:52;2.23;;;1.97;;
64595;SDS011;51003;51.628;6.670;2023-08-08T13:52:18;2.23;;;1.80;;
64595;SDS011;51003;51.628;6.670;2023-08-08T13:54:43;3.33;;;1.80;;
64595;SDS011;51003;51.628;6.670;2023-08-08T13:57:09;2.10;;;2.00;;
64595;SDS011;51003;51.628;6.670;2023-08-08T13:59:34;2.00;;;1.90;;
64595;SDS011;51003;51.628;6.670;2023-08-08T14:02:00;2.57;;;2.10;;
64595;SDS011;51003;51.628;6.670;2023-08-08T14:04:25;2.07;;;1.90;;
64595;SDS011;51003;51.628;6.670;2023-08-08T14:06:50;4.20;;;2.07;;
64595;SDS011;51003;51.628;6.670;2023-08-08T14:09:16;1.90;;;1.80;;
64595;SDS011;51003;51.628;6.670;2023-08-08T14:11:41;1.97;;;1.80;;
64595;SDS011;51003;51.628;6.670;2023-08-08T14:14:07;2.80;;;2.10;;
64595;SDS011;51003;51.628;6.670;2023-08-08T14:16:32;8.10;;;2.30;;
64595;SDS011;51003;51.628;6.670;2023-08-08T14:18:57;1.70;;;1.60;;
64595;SDS011;51003;51.628;6.670;2023-08-08T14:21:23;1.70;;;1.60;;
64595;SDS011;51003;51.628;6.670;2023-08-08T14:23:48;1.97;;;1.57;;
64595;SDS011;51003;51.628;6.670;2023-08-08T14:26:14;1.83;;;1.73;;
64595;SDS011;51003;51.628;6.670;2023-08-08T14:28:39;2.43;;;1.50;;
64595;SDS011;51003;51.628;6.670;2023-08-08T14:31:04;1.83;;;1.73;;
64595;SDS011;51003;51.628;6.670;2023-08-08T14:33:31;2.00;;;1.70;;
64595;SDS011;51003;51.628;6.670;2023-08-08T14:35:57;1.40;;;1.30;;
64595;SDS011;51003;51.628;6.670;2023-08-08T14:38:23;1.80;;;1.60;;
64595;SDS011;51003;51.628;6.670;2023-08-08T14:40:49;1.13;;;1.10;;